Time;durP1;ratioP1;P1;durP2;ratioP2;P2;SDS_P1;SDS_P2;PMS_P1;PMS_P2;Temp;Humidity;BMP_temperature;BMP_pressure;BME280_temperature;BME280_humidity;BME280_pressure;Samples;Min_cycle;Max_cycle;Signal;HPM_P1;HPM_P2
2022/06/13 00:00:26;;;;;;;;;14.00;12.67;;;;;20.95;67.38;100877.56;5076552;28;46257;-73
2022/06/13 00:02:52;;;;;;;;;14.33;12.67;;;;;20.66;68.79;100796.31;5076455;28;45565;-73
2022/06/13 00:05:18;;;;;;;;;14.33;12.33;;;;;20.05;70.37;100735.69;5075473;28;45586;-74
2022/06/13 00:07:44;;;;;;;;;14.00;13.33;;;;;19.25;70.31;100673.31;5075808;28;45485;-73
2022/06/13 00:10:11;;;;;;;;;12.33;12.33;;;;;20.34;70.61;100917.69;5075723;28;45506;-73
2022/06/13 00:12:38;;;;;;;;;14.00;13.00;;;;;20.35;70.44;100908.84;5076068;28;45427;-73
2022/06/13 00:15:05;;;;;;;;;12.33;11.00;;;;;19.97;70.31;100764.91;5074857;28;45336;-74
2022/06/13 00:17:30;;;;;;;;;16.33;15.00;;;;;19.90;71.11;100749.06;5078368;27;45649;-74
2022/06/13 00:19:56;;;;;;;;;14.67;14.00;;;;;20.23;70.96;100836.41;5078112;27;45491;-73
2022/06/13 00:22:21;;;;;;;;;14.33;12.33;;;;;20.14;71.75;100824.94;5077924;27;45549;-74
2022/06/13 00:24:47;;;;;;;;;14.33;13.33;;;;;19.93;72.32;100772.88;5078052;28;45392;-72
2022/06/13 00:27:13;;;;;;;;;15.00;14.00;;;;;19.98;71.93;100781.72;5078239;28;45498;-74
2022/06/13 00:29:39;;;;;;;;;14.33;12.33;;;;;19.94;72.38;100753.44;5077942;28;45473;-74
2022/06/13 00:32:05;;;;;;;;;14.33;12.33;;;;;19.81;71.96;100711.06;5078048;28;45450;-74
2022/06/13 00:34:31;;;;;;;;;15.33;12.67;;;;;19.76;72.11;100701.41;5078007;28;45441;-73
2022/06/13 00:36:57;;;;;;;;;14.67;14.00;;;;;19.95;72.86;100737.50;5078001;28;45414;-73
2022/06/13 00:39:22;;;;;;;;;13.67;11.67;;;;;19.61;73.05;100707.63;5077502;28;45435;-74
2022/06/13 00:41:48;;;;;;;;;15.67;15.00;;;;;19.92;73.79;100797.66;5077608;28;45383;-74
2022/06/13 00:44:40;;;;;;;;;12.67;11.67;;;;;19.89;73.60;100795.88;5077715;28;45646;-73
2022/06/13 00:47:06;;;;;;;;;13.67;11.00;;;;;19.89;73.67;100792.34;5074107;28;45459;-74
2022/06/13 00:49:39;;;;;;;;;11.67;11.33;;;;;19.87;73.91;100784.38;5059085;28;47876;-74
2022/06/13 00:52:23;;;;;;;;;13.67;12.00;;;;;19.81;73.96;100785.28;5059577;28;45474;-73
2022/06/13 00:54:51;;;;;;;;;15.33;14.33;;;;;19.54;74.04;100756.25;5077173;28;46057;-74
2022/06/13 00:57:22;;;;;;;;;12.00;11.00;;;;;19.17;73.60;100696.28;5059552;28;45334;-74
2022/06/13 00:59:52;;;;;;;;;14.33;14.00;;;;;19.13;73.34;100691.91;5077538;28;46681;-73
2022/06/13 01:02:19;;;;;;;;;12.67;12.00;;;;;19.49;73.51;100764.19;5077390;28;45454;-73
2022/06/13 01:04:47;;;;;;;;;12.33;12.00;;;;;19.30;73.13;100738.63;5077214;28;45468;-73
2022/06/13 01:07:13;;;;;;;;;11.33;10.00;;;;;19.56;73.19;100795.09;5077352;28;45496;-74
2022/06/13 01:12:25;;;;;;;;;10.33;10.00;;;;;19.14;74.12;100713.94;5076906;28;45387;-73
2022/06/13 01:15:15;;;;;;;;;15.33;12.33;;;;;19.44;74.99;100773.94;5077681;28;45323;-73
2022/06/13 01:17:49;;;;;;;;;10.67;9.67;;;;;19.42;74.36;100765.97;5077800;28;45343;-73
2022/06/13 01:20:24;;;;;;;;;13.67;12.33;;;;;19.12;74.74;100713.06;5077227;28;46070;-74
2022/06/13 01:22:55;;;;;;;;;10.67;10.67;;;;;19.42;74.94;100781.00;5077145;28;45219;-74
2022/06/13 01:25:38;;;;;;;;;12.00;11.00;;;;;19.39;75.40;100797.78;5077160;28;45487;-74
2022/06/13 01:28:30;;;;;;;;;14.67;12.33;;;;;19.40;75.06;100801.31;5077264;28;45399;-74
2022/06/13 01:31:17;;;;;;;;;12.00;11.67;;;;;19.40;74.76;100793.38;5076739;28;45469;-74
2022/06/13 01:34:00;;;;;;;;;14.33;12.33;;;;;19.40;74.18;100791.59;5077150;28;45300;-74
2022/06/13 01:36:54;;;;;;;;;14.00;13.33;;;;;19.41;74.16;100779.22;5076998;28;45731;-74
2022/06/13 01:39:29;;;;;;;;;13.00;11.67;;;;;19.13;74.55;100755.44;5077427;28;45311;-74
2022/06/13 01:42:16;;;;;;;;;12.00;12.00;;;;;19.39;74.82;100818.09;5076862;28;45259;-73
2022/06/13 01:44:44;;;;;;;;;15.67;13.33;;;;;19.41;74.68;100829.56;5077158;28;45307;-74
2022/06/13 01:47:34;;;;;;;;;12.00;10.00;;;;;19.38;73.92;100795.16;5077499;28;45371;-73
2022/06/13 01:50:16;;;;;;;;;13.00;12.00;;;;;18.42;74.45;100588.81;5077221;28;45203;-74
2022/06/13 01:52:44;;;;;;;;;13.00;11.67;;;;;19.33;73.92;100722.75;5077095;28;45493;-74
2022/06/13 01:55:22;;;;;;;;;12.67;11.33;;;;;19.34;74.67;100705.94;5077033;28;45307;-74
2022/06/13 01:57:57;;;;;;;;;12.00;11.33;;;;;19.35;74.92;100735.09;5076910;28;45528;-74
2022/06/13 02:00:31;;;;;;;;;13.67;12.67;;;;;19.30;74.63;100757.16;5076675;28;45470;-74
2022/06/13 02:03:02;;;;;;;;;12.00;11.33;;;;;19.36;74.83;100770.41;5076225;28;46426;-73
2022/06/13 02:05:43;;;;;;;;;14.00;13.00;;;;;19.34;75.29;100751.88;5076392;28;45324;-73
2022/06/13 02:08:21;;;;;;;;;12.33;11.67;;;;;19.33;75.30;100757.19;5076935;28;45407;-73
2022/06/13 02:10:59;;;;;;;;;13.67;11.67;;;;;19.38;75.42;100750.13;5076773;28;45478;-73
2022/06/13 02:13:35;;;;;;;;;12.67;12.67;;;;;19.43;75.07;100746.53;5076646;28;45509;-74
2022/06/13 02:16:20;;;;;;;;;13.33;12.33;;;;;19.38;74.35;100731.56;5076496;28;45245;-73
2022/06/13 02:19:21;;;;;;;;;14.00;13.00;;;;;19.28;75.23;100746.59;5076791;28;45302;-74
2022/06/13 02:21:56;;;;;;;;;13.00;12.33;;;;;19.32;75.60;100755.41;5063144;28;45354;-74
2022/06/13 02:24:26;;;;;;;;;11.67;11.67;;;;;19.29;74.20;100735.09;5078962;28;45541;-73
2022/06/13 02:26:58;;;;;;;;;14.00;12.00;;;;;19.15;74.39;100728.97;5079943;28;45482;-75
2022/06/13 02:29:32;;;;;;;;;11.67;11.33;;;;;19.36;74.94;100775.69;5079972;28;45374;-75
2022/06/13 02:32:07;;;;;;;;;14.33;12.67;;;;;19.16;75.26;100742.22;5080081;28;45305;-75
2022/06/13 02:34:45;;;;;;;;;12.33;12.00;;;;;19.44;74.93;100772.16;5079793;28;45418;-75
2022/06/13 02:37:42;;;;;;;;;13.67;12.67;;;;;19.48;75.05;100779.22;5079786;28;45449;-75
2022/06/13 02:40:34;;;;;;;;;15.33;14.33;;;;;19.52;74.21;100788.03;5079585;28;45330;-73
2022/06/13 02:43:05;;;;;;;;;14.00;12.00;;;;;19.51;74.22;100778.31;5061654;28;45615;-73
2022/06/13 02:45:39;;;;;;;;;14.00;13.00;;;;;19.55;74.17;100782.72;5079415;28;45481;-73
2022/06/13 02:48:24;;;;;;;;;14.67;14.67;;;;;19.57;73.97;100783.59;5079684;27;45525;-74
2022/06/13 02:51:01;;;;;;;;;13.67;13.33;;;;;19.59;73.64;100784.47;5079454;28;45324;-73
2022/06/13 02:53:57;;;;;;;;;11.33;9.67;;;;;19.64;73.71;100792.41;5079394;28;45292;-73
2022/06/13 03:00:13;;;;;;;;;14.00;13.33;;;;;19.42;73.61;100767.75;5079116;28;45368;-74
2022/06/13 03:02:54;;;;;;;;;12.33;11.67;;;;;19.64;73.72;100785.34;5078632;28;45751;-73
2022/06/13 03:05:38;;;;;;;;;13.67;12.00;;;;;19.66;73.37;100790.66;5079343;28;45348;-74
2022/06/13 03:08:38;;;;;;;;;14.00;13.33;;;;;19.64;73.54;100787.13;5060617;27;47314;-74
2022/06/13 03:11:37;;;;;;;;;15.00;14.33;;;;;19.64;73.60;100782.69;5079275;28;45300;-74
2022/06/13 03:14:28;;;;;;;;;13.33;12.33;;;;;19.66;73.80;100774.75;5079179;28;45442;-73
2022/06/13 03:17:29;;;;;;;;;10.67;10.67;;;;;19.68;73.16;100783.56;5079534;28;45637;-73
2022/06/13 03:20:08;;;;;;;;;16.00;14.00;;;;;19.63;73.86;100786.22;5033506;28;46195;-74
2022/06/13 03:22:49;;;;;;;;;16.33;13.33;;;;;19.66;73.66;100786.22;5078867;28;45215;-73
2022/06/13 03:25:43;;;;;;;;;14.67;12.67;;;;;19.29;73.75;100719.22;5079031;28;45878;-74
2022/06/13 03:28:40;;;;;;;;;12.33;11.67;;;;;19.71;74.07;100783.56;5060802;28;45527;-73
2022/06/13 03:31:11;;;;;;;;;15.33;14.67;;;;;19.62;74.03;100778.28;5070598;27;46112;-72
2022/06/13 03:33:43;;;;;;;;;15.67;14.00;;;;;19.67;74.06;100798.56;5078508;28;45385;-72
2022/06/13 03:36:24;;;;;;;;;11.67;10.67;;;;;19.65;74.15;100784.44;5078786;28;45720;-73
2022/06/13 03:39:02;;;;;;;;;11.00;11.00;;;;;19.67;74.28;100782.66;5079368;28;45439;-73
2022/06/13 03:41:33;;;;;;;;;14.33;13.33;;;;;19.34;74.05;100724.50;5078470;28;46108;-73
2022/06/13 03:44:24;;;;;;;;;11.67;10.00;;;;;19.72;74.08;100773.88;5078739;28;45352;-73
2022/06/13 03:47:21;;;;;;;;;14.00;12.33;;;;;19.71;73.48;100767.66;5078944;28;45370;-73
2022/06/13 03:49:56;;;;;;;;;16.67;12.67;;;;;19.43;74.17;100743.00;5078481;27;45803;-73
2022/06/13 03:52:25;;;;;;;;;13.00;11.00;;;;;19.68;74.47;100779.16;5078366;28;45502;-73
2022/06/13 03:54:59;;;;;;;;;12.00;10.67;;;;;19.75;74.46;100773.84;5078454;27;45376;-73
2022/06/13 03:57:36;;;;;;;;;13.33;11.33;;;;;19.56;73.47;100741.22;5078610;28;45485;-73
2022/06/13 04:00:08;;;;;;;;;13.67;13.00;;;;;19.79;73.71;100772.94;5078364;27;45485;-73
2022/06/13 04:02:37;;;;;;;;;12.00;12.00;;;;;19.32;73.93;100690.09;5078108;28;46304;-73
2022/06/13 04:05:03;;;;;;;;;14.67;12.00;;;;;19.76;73.76;100757.06;5078179;28;45524;-73
2022/06/13 04:07:33;;;;;;;;;13.67;12.33;;;;;19.81;73.65;100769.38;5078426;28;45365;-73
2022/06/13 04:10:10;;;;;;;;;12.00;11.00;;;;;19.89;73.08;100779.09;5078559;28;45409;-73
2022/06/13 04:12:59;;;;;;;;;14.33;10.33;;;;;19.89;72.78;100779.97;5078452;28;46070;-73
2022/06/13 04:15:43;;;;;;;;;13.00;11.00;;;;;19.90;73.22;100783.53;5078691;28;45371;-73
2022/06/13 04:18:16;;;;;;;;;10.33;10.00;;;;;19.90;73.32;100786.16;5078238;28;45484;-73
2022/06/13 04:21:03;;;;;;;;;10.67;10.33;;;;;19.88;72.49;100787.94;5078068;28;45357;-73
2022/06/13 04:23:40;;;;;;;;;13.67;12.33;;;;;19.88;73.40;100790.59;5077905;28;46041;-73
2022/06/13 04:26:32;;;;;;;;;12.33;10.67;;;;;19.84;73.21;100779.13;5075392;28;45393;-73
2022/06/13 04:29:04;;;;;;;;;11.67;10.67;;;;;19.82;73.11;100781.78;5071894;28;45376;-76
2022/06/13 04:31:33;;;;;;;;;13.67;12.33;;;;;19.37;73.14;100704.16;5076213;27;45756;-75
2022/06/13 04:34:05;;;;;;;;;14.00;10.67;;;;;19.88;73.31;100782.66;5075859;28;45376;-80
2022/06/13 04:36:32;;;;;;;;;13.67;11.00;;;;;19.87;72.61;100779.09;5075961;28;45291;-74
2022/06/13 04:39:03;;;;;;;;;12.33;10.33;;;;;19.86;73.19;100780.00;5076137;28;45544;-73
2022/06/13 04:41:33;;;;;;;;;9.67;8.67;;;;;19.82;73.13;100762.34;5075782;28;45493;-73
2022/06/13 04:44:03;;;;;;;;;12.67;10.33;;;;;19.94;72.51;100783.50;5075493;28;45606;-73
2022/06/13 04:46:31;;;;;;;;;15.00;12.00;;;;;19.82;72.71;100754.38;5074814;28;45615;-73
2022/06/13 04:49:02;;;;;;;;;14.00;13.00;;;;;19.87;73.08;100755.22;5075568;28;45422;-73
2022/06/13 04:51:36;;;;;;;;;14.00;10.33;;;;;19.98;72.99;100769.31;5075792;28;45473;-73
2022/06/13 04:54:01;;;;;;;;;13.33;11.33;;;;;20.02;73.14;100773.72;5073960;28;45496;-72
2022/06/13 04:56:28;;;;;;;;;14.00;10.00;;;;;19.99;72.88;100768.41;5075476;27;45430;-73
2022/06/13 04:58:56;;;;;;;;;9.00;8.67;;;;;20.07;72.79;100773.69;5075980;28;45456;-74
2022/06/13 05:01:33;;;;;;;;;9.33;9.33;;;;;19.78;72.49;100699.63;5057866;28;45311;-73
2022/06/13 05:04:03;;;;;;;;;11.33;10.67;;;;;20.13;72.49;100764.81;5072991;28;45451;-73
2022/06/13 05:06:52;;;;;;;;;11.33;10.67;;;;;20.05;72.15;100762.22;5074975;28;45285;-73
2022/06/13 05:09:31;;;;;;;;;10.33;9.00;;;;;20.15;72.60;100776.31;5054908;28;45378;-72
2022/06/13 05:12:06;;;;;;;;;12.00;9.67;;;;;20.16;72.79;100776.28;5073192;28;45359;-72
2022/06/13 05:14:39;;;;;;;;;12.33;11.67;;;;;20.16;72.85;100773.66;5074921;28;45413;-73
2022/06/13 05:17:47;;;;;;;;;13.00;11.33;;;;;20.19;72.42;100770.09;5075079;28;45498;-73
2022/06/13 05:20:49;;;;;;;;;14.00;12.00;;;;;20.21;72.49;100773.59;5053350;28;45573;-73
2022/06/13 05:23:39;;;;;;;;;13.00;10.67;;;;;20.23;72.53;100769.16;5072804;28;45351;-73
2022/06/13 05:26:07;;;;;;;;;13.33;12.67;;;;;20.24;72.46;100768.28;5073834;28;46606;-73
2022/06/13 05:28:35;;;;;;;;;12.33;11.67;;;;;20.25;72.43;100760.34;5075265;28;45826;-73
2022/06/13 05:31:10;;;;;;;;;18.67;14.33;;;;;20.16;72.77;100741.81;5075237;28;45399;-72
2022/06/13 05:33:39;;;;;;;;;12.67;11.33;;;;;20.31;72.91;100770.00;5072857;28;45430;-73
2022/06/13 05:36:08;;;;;;;;;12.00;11.67;;;;;20.34;73.16;100771.78;5074969;28;45277;-72
2022/06/13 05:38:40;;;;;;;;;14.00;13.33;;;;;20.35;73.02;100763.81;5074917;28;45450;-73
2022/06/13 05:41:06;;;;;;;;;14.67;12.67;;;;;20.14;73.11;100730.34;5075218;28;45622;-73
2022/06/13 05:43:32;;;;;;;;;15.33;13.33;;;;;20.38;72.71;100773.50;5074947;28;45568;-73
2022/06/13 05:45:58;;;;;;;;;17.67;14.33;;;;;20.34;72.55;100767.34;5074494;28;45546;-73
2022/06/13 05:48:24;;;;;;;;;15.67;14.33;;;;;20.30;72.54;100757.66;5074551;28;45557;-73
2022/06/13 05:50:50;;;;;;;;;12.67;10.67;;;;;20.46;72.64;100788.47;5075136;28;45475;-73
2022/06/13 05:53:19;;;;;;;;;15.33;12.67;;;;;20.48;72.88;100787.59;5075321;28;45420;-73
2022/06/13 05:55:47;;;;;;;;;14.67;13.33;;;;;20.43;72.80;100780.56;5074862;28;46261;-73
2022/06/13 05:58:16;;;;;;;;;12.67;11.00;;;;;20.49;72.49;100795.53;5077532;27;45427;-73
2022/06/13 06:00:48;;;;;;;;;14.33;11.33;;;;;20.50;72.80;100791.13;5078463;28;45614;-73
2022/06/13 06:03:13;;;;;;;;;12.33;10.33;;;;;20.52;72.33;100784.03;5078443;28;45504;-73
2022/06/13 06:05:40;;;;;;;;;13.67;11.33;;;;;20.36;72.13;100760.25;5078299;28;45424;-72
2022/06/13 06:08:23;;;;;;;;;10.00;10.00;;;;;20.53;71.85;100793.75;5078593;28;45370;-76
2022/06/13 06:10:52;;;;;;;;;11.00;9.33;;;;;20.49;72.49;100786.69;5059652;28;45465;-72
2022/06/13 06:13:19;;;;;;;;;10.67;10.67;;;;;20.53;72.57;100793.75;5076180;27;45474;-72
2022/06/13 06:15:47;;;;;;;;;17.33;16.00;;;;;20.53;72.64;100786.69;5078284;28;45467;-72
2022/06/13 06:18:13;;;;;;;;;16.00;13.00;;;;;20.55;72.28;100791.97;5077952;28;45508;-73
2022/06/13 06:20:39;;;;;;;;;13.00;12.33;;;;;20.42;72.04;100775.25;5078257;28;45385;-73
2022/06/13 06:23:06;;;;;;;;;14.00;11.67;;;;;20.58;71.98;100797.25;5078150;28;45483;-73
2022/06/13 06:25:33;;;;;;;;;13.33;12.00;;;;;20.59;71.95;100794.63;5077621;28;46235;-73
2022/06/13 06:27:59;;;;;;;;;12.67;11.67;;;;;20.61;72.76;100789.28;5077676;28;45508;-73
2022/06/13 06:30:28;;;;;;;;;13.33;12.33;;;;;20.61;72.50;100806.13;5077593;28;45668;-72
2022/06/13 06:32:57;;;;;;;;;16.33;13.00;;;;;20.56;72.46;100794.59;5078148;28;45991;-73
2022/06/13 06:35:26;;;;;;;;;12.67;10.33;;;;;20.62;72.28;100801.69;5077976;28;46200;-72
2022/06/13 06:37:53;;;;;;;;;13.00;11.67;;;;;20.30;72.53;100757.66;5078429;28;45734;-72
2022/06/13 06:40:22;;;;;;;;;14.67;12.00;;;;;20.62;72.45;100812.31;5078154;27;45484;-72
2022/06/13 06:42:47;;;;;;;;;14.33;12.00;;;;;20.63;72.91;100808.75;5077927;27;45450;-73
2022/06/13 06:45:13;;;;;;;;;13.33;12.33;;;;;20.65;73.14;100817.56;5077215;27;45464;-72
2022/06/13 06:47:39;;;;;;;;;15.33;13.00;;;;;20.54;72.82;100787.56;5077509;28;45440;-73
2022/06/13 06:50:06;;;;;;;;;13.33;12.33;;;;;20.59;72.59;100783.09;5059566;28;45454;-72
2022/06/13 06:52:32;;;;;;;;;12.67;10.00;;;;;20.44;72.33;100750.47;5078072;28;45574;-73
2022/06/13 07:00:26;;;;;;;;;13.33;12.00;;;;;20.83;72.02;100790.91;5075348;28;45518;-72
2022/06/13 07:02:52;;;;;;;;;14.00;13.00;;;;;20.95;72.11;100804.94;5078163;28;45959;-81
2022/06/13 07:05:17;;;;;;;;;11.00;9.67;;;;;20.75;71.74;100811.31;5077674;28;46191;-78
2022/06/13 07:07:43;;;;;;;;;14.33;13.00;;;;;21.02;71.61;100796.03;5078583;28;45912;-76
2022/06/13 07:10:15;;;;;;;;;15.00;12.00;;;;;20.82;71.45;100765.22;5078440;28;45389;-76
2022/06/13 07:12:41;;;;;;;;;18.67;13.00;;;;;21.24;71.09;100808.22;5079658;28;45382;-78
2022/06/13 07:15:08;;;;;;;;;12.00;11.00;;;;;21.38;70.41;100810.72;5078836;28;45270;-75
2022/06/13 07:17:33;;;;;;;;;10.67;9.67;;;;;21.38;70.17;100783.28;5079200;28;45466;-78
2022/06/13 07:19:59;;;;;;;;;13.33;10.67;;;;;21.76;69.44;100811.25;5079231;28;45533;-77
2022/06/13 07:22:25;;;;;;;;;11.00;10.00;;;;;21.91;68.85;100805.75;5079452;28;45153;-76
2022/06/13 07:24:51;;;;;;;;;10.33;10.00;;;;;22.02;67.93;100808.25;5079391;27;46571;-77
2022/06/13 07:27:18;;;;;;;;;10.00;9.00;;;;;22.19;67.51;100808.03;5078997;28;45393;-77
2022/06/13 07:29:44;;;;;;;;;7.33;7.33;;;;;22.34;66.67;100810.53;5078440;28;45438;-71
2022/06/13 07:32:12;;;;;;;;;10.33;8.67;;;;;22.33;66.38;100818.53;5077949;27;45894;-71
2022/06/13 07:34:39;;;;;;;;;8.00;7.33;;;;;22.26;66.20;100812.41;5080552;27;46238;-72
2022/06/13 07:37:08;;;;;;;;;8.00;8.00;;;;;22.47;65.99;100803.22;5076501;27;45568;-72
2022/06/13 07:39:34;;;;;;;;;10.33;9.00;;;;;21.56;64.77;100606.78;5074810;27;45515;-75
2022/06/13 07:42:01;;;;;;;;;7.00;6.00;;;;;23.01;64.14;100802.34;5057340;28;45422;-74
2022/06/13 07:44:32;;;;;;;;;10.00;6.33;;;;;23.08;63.47;100798.72;5076968;27;46360;-72
2022/06/13 07:46:59;;;;;;;;;8.33;7.67;;;;;23.15;62.76;100810.16;5087270;27;45509;-73
2022/06/13 07:49:25;;;;;;;;;8.00;7.00;;;;;22.77;62.69;100740.59;5098719;27;45445;-74
2022/06/13 07:51:51;;;;;;;;;8.33;6.33;;;;;23.21;62.18;100810.03;5098499;27;45341;-72
2022/06/13 07:54:17;;;;;;;;;5.00;5.00;;;;;22.93;62.19;100759.00;5097369;27;45252;-71
2022/06/13 07:56:44;;;;;;;;;6.00;6.00;;;;;23.30;62.58;100804.53;5097446;27;45314;-72
2022/06/13 07:59:26;;;;;;;;;6.67;6.00;;;;;23.31;61.96;100808.09;5097726;27;45509;-74
2022/06/13 08:01:52;;;;;;;;;5.33;5.33;;;;;23.26;62.48;100800.19;5098320;27;45410;-72
2022/06/13 08:04:17;;;;;;;;;5.33;4.00;;;;;23.34;62.29;100806.25;5097310;27;45424;-72
2022/06/13 08:06:43;;;;;;;;;4.67;4.00;;;;;23.49;62.07;100801.53;5096995;27;45466;-71
2022/06/13 08:09:11;;;;;;;;;8.00;7.00;;;;;23.54;61.23;100770.31;5097873;27;45404;-71
2022/06/13 08:11:45;;;;;;;;;4.67;4.00;;;;;24.05;59.88;100795.97;5097787;27;45383;-71
2022/06/13 08:14:11;;;;;;;;;4.00;4.00;;;;;24.29;59.83;100798.09;5096754;27;46463;-77
2022/06/13 08:16:37;;;;;;;;;4.33;4.33;;;;;24.46;59.97;100796.81;5097501;27;45500;-72
2022/06/13 08:19:04;;;;;;;;;5.00;4.00;;;;;23.60;59.09;100628.88;5098166;27;45482;-72
2022/06/13 08:21:32;;;;;;;;;3.00;3.00;;;;;24.74;57.80;100797.94;5097390;27;45535;-73
2022/06/13 08:23:58;;;;;;;;;3.67;3.67;;;;;24.89;57.28;100798.47;5097328;27;45811;-73
2022/06/13 08:26:24;;;;;;;;;4.00;3.33;;;;;24.83;57.28;100759.44;5098631;27;45589;-73
2022/06/13 08:28:49;;;;;;;;;3.00;3.00;;;;;25.28;56.64;100793.91;5097980;27;45310;-75
2022/06/13 08:31:18;;;;;;;;;5.00;5.00;;;;;25.49;56.25;100794.25;5098480;27;45153;-73
2022/06/13 08:33:44;;;;;;;;;4.67;3.67;;;;;25.78;55.14;100780.94;5079407;27;47181;-72
2022/06/13 08:36:11;;;;;;;;;5.33;5.00;;;;;25.92;54.36;100780.53;5097855;27;45337;-73
2022/06/13 08:38:37;;;;;;;;;4.00;3.33;;;;;25.84;54.78;100776.28;5097969;27;45495;-73
2022/06/13 08:41:10;;;;;;;;;5.00;5.00;;;;;25.82;54.84;100776.34;5098026;27;45485;-73
2022/06/13 08:43:55;;;;;;;;;5.00;3.67;;;;;25.98;54.62;100771.44;5097964;27;45313;-73
2022/06/13 08:46:48;;;;;;;;;4.33;4.33;;;;;26.15;53.88;100781.63;5097885;27;45362;-72
2022/06/13 08:49:55;;;;;;;;;4.00;3.00;;;;;26.36;54.68;100770.25;5097994;27;45585;-73
2022/06/13 08:52:32;;;;;;;;;4.00;4.00;;;;;26.48;53.03;100766.31;5052491;27;45384;-73
2022/06/13 08:55:13;;;;;;;;;3.67;3.67;;;;;26.48;52.43;100762.72;5098042;27;45464;-73
2022/06/13 08:57:55;;;;;;;;;3.00;3.00;;;;;26.43;52.72;100770.06;5097811;27;45321;-72
2022/06/13 09:00:25;;;;;;;;;4.00;4.00;;;;;26.33;52.91;100723.94;5097907;27;45296;-73
2022/06/13 09:03:30;;;;;;;;;3.33;3.00;;;;;27.13;51.62;100766.81;5097990;27;45183;-73
2022/06/13 09:06:11;;;;;;;;;2.00;2.00;;;;;27.63;49.70;100763.25;5097045;27;45515;-73
2022/06/13 09:08:58;;;;;;;;;3.00;3.00;;;;;27.81;49.39;100756.31;5097582;27;45494;-73
2022/06/13 09:11:34;;;;;;;;;4.67;3.67;;;;;27.94;49.65;100763.88;5097986;27;45310;-73
2022/06/13 09:14:09;;;;;;;;;3.00;3.00;;;;;28.01;48.57;100758.25;5097811;27;45551;-74
2022/06/13 09:16:39;;;;;;;;;3.00;3.00;;;;;28.33;47.94;100757.88;5097294;27;45512;-72
2022/06/13 09:19:38;;;;;;;;;3.33;2.33;;;;;29.08;47.29;100756.53;5097422;27;45525;-74
2022/06/13 09:22:24;;;;;;;;;2.67;2.67;;;;;29.75;45.16;100754.50;5097614;27;45454;-73
2022/06/13 09:25:29;;;;;;;;;3.00;3.00;;;;;30.10;44.57;100755.50;5097821;27;45883;-72
2022/06/13 09:28:01;;;;;;;;;3.00;3.00;;;;;30.41;43.48;100748.66;5082472;27;46224;-72
2022/06/13 09:30:34;;;;;;;;;3.33;3.33;;;;;30.59;42.63;100746.84;5097756;27;45258;-72
2022/06/13 09:33:12;;;;;;;;;2.67;2.67;;;;;30.41;42.34;100699.25;5081839;27;45503;-74
2022/06/13 09:35:49;;;;;;;;;4.33;3.67;;;;;30.90;42.36;100748.88;5100832;27;45557;-74
2022/06/13 09:38:34;;;;;;;;;3.00;3.00;;;;;30.93;42.04;100718.19;5100406;27;45327;-74
2022/06/13 09:41:02;;;;;;;;;3.33;3.00;;;;;31.13;41.83;100757.59;5101234;27;45689;-73
2022/06/13 09:43:44;;;;;;;;;4.33;2.67;;;;;31.02;42.56;100752.78;5101244;27;45420;-74
2022/06/13 09:46:25;;;;;;;;;2.67;2.33;;;;;30.90;42.30;100753.41;5100793;27;45322;-75
2022/06/13 09:49:17;;;;;;;;;3.00;2.67;;;;;30.73;43.08;100746.16;5100579;27;46300;-74
2022/06/13 09:51:45;;;;;;;;;5.00;3.00;;;;;30.54;43.11;100746.22;5100067;27;45443;-72
2022/06/13 09:54:22;;;;;;;;;3.33;3.00;;;;;30.16;43.30;100705.81;5100734;27;45464;-71
2022/06/13 09:57:22;;;;;;;;;3.00;3.00;;;;;30.21;43.47;100746.03;5100898;27;45465;-71
2022/06/13 10:00:14;;;;;;;;;3.00;3.00;;;;;30.21;44.20;100752.28;5073747;27;45415;-72
2022/06/13 10:03:09;;;;;;;;;4.33;4.33;;;;;30.29;43.95;100755.47;5100328;27;45457;-73
2022/06/13 10:05:43;;;;;;;;;3.67;3.00;;;;;30.43;43.22;100741.34;5100649;27;45341;-72
2022/06/13 10:08:29;;;;;;;;;52.75;43.75;;;;;30.57;43.50;100746.06;5100332;27;45325;-72
2022/06/13 10:11:18;;;;;;;;;5.33;5.00;;;;;30.76;43.04;100742.41;5100091;27;45535;-72
2022/06/13 10:13:49;;;;;;;;;4.33;4.00;;;;;30.60;42.72;100686.59;5100525;27;45334;-72
2022/06/13 10:16:49;;;;;;;;;4.00;4.00;;;;;31.07;42.28;100747.13;5100129;27;45500;-72
2022/06/13 10:19:23;;;;;;;;;4.00;4.00;;;;;31.07;42.01;100742.59;5068314;27;45526;-72
2022/06/13 10:21:55;;;;;;;;;8.00;7.00;;;;;30.83;42.96;100743.84;5099896;27;45674;-72
2022/06/13 10:24:30;;;;;;;;;6.00;6.00;;;;;30.61;43.14;100741.38;5099792;27;45503;-72
2022/06/13 10:27:11;;;;;;;;;7.00;6.33;;;;;30.47;43.85;100732.16;5100025;27;45373;-72
2022/06/13 10:29:52;;;;;;;;;6.00;5.67;;;;;30.59;44.02;100730.66;5100196;27;45297;-72
2022/06/13 10:32:42;;;;;;;;;5.33;5.00;;;;;30.81;42.95;100727.75;5099876;27;45459;-72
2022/06/13 10:35:43;;;;;;;;;8.00;6.67;;;;;30.67;43.92;100733.84;5081159;27;45325;-72
2022/06/13 10:38:44;;;;;;;;;5.00;5.00;;;;;30.66;43.35;100734.81;5055729;27;45477;-73
2022/06/13 10:41:10;;;;;;;;;7.00;7.00;;;;;30.77;42.65;100722.59;5099996;27;45317;-72
2022/06/13 10:43:42;;;;;;;;;8.00;7.00;;;;;30.71;43.68;100721.09;5079973;27;46325;-73
2022/06/13 10:46:11;;;;;;;;;7.33;7.33;;;;;30.49;42.73;100688.97;5100122;27;45471;-74
2022/06/13 10:49:17;;;;;;;;;7.00;6.33;;;;;30.68;42.84;100722.13;5098835;27;45259;-73
2022/06/13 10:51:45;;;;;;;;;6.33;6.00;;;;;31.12;42.80;100721.66;5098902;27;45306;-73
2022/06/13 10:54:24;;;;;;;;;7.00;7.00;;;;;31.42;41.09;100718.25;5099790;27;45923;-71
2022/06/13 10:57:17;;;;;;;;;8.00;7.67;;;;;31.75;40.88;100711.09;5098770;27;45291;-72
2022/06/13 10:59:43;;;;;;;;;7.00;6.33;;;;;31.84;40.65;100711.47;5069581;27;45433;-73
2022/06/13 11:02:27;;;;;;;;;7.67;7.67;;;;;33.62;37.77;100699.97;5097824;27;45453;-73
2022/06/13 11:05:09;;;;;;;;;6.67;6.33;;;;;34.78;35.76;100712.25;5098561;27;46231;-73
2022/06/13 11:07:47;;;;;;;;;7.67;7.67;;;;;35.53;35.02;100708.78;5080946;27;45381;-73
2022/06/13 11:10:31;;;;;;;;;8.33;8.00;;;;;35.54;34.41;100705.09;5099501;27;45414;-73
2022/06/13 11:12:58;;;;;;;;;5.33;5.00;;;;;34.96;35.44;100699.22;5100110;27;45419;-73
2022/06/13 11:24:16;;;;;;;;;7.00;7.00;;;;;33.31;38.03;100697.44;5099848;27;45192;-74
2022/06/13 11:29:30;;;;;;;;;10.00;9.33;;;;;33.05;37.81;100618.75;5099132;27;45492;-72
2022/06/13 11:31:59;;;;;;;;;8.00;7.33;;;;;33.00;38.47;100602.78;5098427;27;45429;-72
2022/06/13 11:34:29;;;;;;;;;9.00;8.00;;;;;33.48;37.58;100668.34;5099458;27;45381;-73
2022/06/13 11:37:13;;;;;;;;;7.00;6.33;;;;;33.42;38.08;100676.84;5098933;27;45389;-72
2022/06/13 11:39:40;;;;;;;;;7.00;6.00;;;;;33.62;37.95;100645.81;5080578;27;45346;-74
2022/06/13 11:42:26;;;;;;;;;7.67;7.67;;;;;34.02;37.00;100664.00;5099162;27;45391;-73
2022/06/13 11:45:06;;;;;;;;;7.00;7.00;;;;;34.20;36.84;100668.22;5099283;27;45580;-76
2022/06/13 11:47:40;;;;;;;;;7.00;7.00;;;;;34.14;37.53;100637.91;5098718;27;45662;-73
2022/06/13 11:50:20;;;;;;;;;7.33;6.33;;;;;34.23;37.76;100657.16;5099252;27;45300;-73
2022/06/13 11:55:36;;;;;;;;;7.67;7.33;;;;;33.83;37.13;100653.50;5099280;27;45252;-73
2022/06/13 11:58:03;;;;;;;;;7.67;6.67;;;;;33.80;37.33;100653.69;5098484;27;45430;-73
2022/06/13 12:00:48;;;;;;;;;9.33;8.33;;;;;33.88;37.89;100660.38;5098783;27;45427;-75
2022/06/13 12:03:20;;;;;;;;;11.67;10.00;;;;;34.15;36.74;100651.38;5098947;27;45313;-73
2022/06/13 12:06:11;;;;;;;;;8.00;7.33;;;;;34.16;37.67;100646.84;5099192;27;45343;-73
2022/06/13 12:08:38;;;;;;;;;9.00;8.67;;;;;33.94;37.62;100617.56;5089175;27;45643;-72
2022/06/13 12:11:20;;;;;;;;;9.67;9.33;;;;;34.20;37.27;100646.53;5098516;27;45514;-73
2022/06/13 12:13:47;;;;;;;;;9.67;8.67;;;;;34.23;37.42;100646.31;5098347;27;45365;-73
2022/06/13 12:16:34;;;;;;;;;7.67;7.67;;;;;34.18;37.64;100634.03;5098588;27;45241;-72